createdAt,value
2023-05-13T00:01:21.311Z,10.70
2023-05-13T00:03:48.538Z,10.75
2023-05-13T00:06:15.353Z,10.78
2023-05-13T00:08:41.823Z,10.79
2023-05-13T00:11:08.345Z,10.79
2023-05-13T00:13:34.804Z,10.79
2023-05-13T00:16:02.169Z,10.81
2023-05-13T00:18:28.716Z,10.80
2023-05-13T00:20:56.233Z,10.80
2023-05-13T00:23:23.147Z,10.85
2023-05-13T00:25:49.527Z,10.86
2023-05-13T00:28:16.158Z,10.81
2023-05-13T00:30:43.762Z,10.80
2023-05-13T00:33:10.775Z,10.76
2023-05-13T00:35:37.212Z,10.72
2023-05-13T00:38:03.987Z,10.74
2023-05-13T00:40:31.200Z,10.72
2023-05-13T00:42:57.983Z,10.66
2023-05-13T00:45:24.387Z,10.57
2023-05-13T00:47:51.545Z,10.57
2023-05-13T00:50:18.814Z,10.51
2023-05-13T00:52:46.238Z,10.41
2023-05-13T00:55:13.039Z,10.38
2023-05-13T00:57:40.416Z,10.35
2023-05-13T01:00:08.587Z,10.31
2023-05-13T01:02:53.666Z,10.27
2023-05-13T01:05:42.286Z,10.24
2023-05-13T01:08:29.967Z,10.23
2023-05-13T01:11:04.919Z,10.23
2023-05-13T01:13:37.623Z,10.08
2023-05-13T01:16:10.615Z,10.03
2023-05-13T01:18:40.392Z,9.95
2023-05-13T01:21:08.441Z,9.92
2023-05-13T01:23:34.982Z,9.91
2023-05-13T01:26:01.915Z,9.92
2023-05-13T01:28:28.718Z,9.87
2023-05-13T01:30:57.463Z,9.80
2023-05-13T01:33:24.916Z,9.71
2023-05-13T01:35:52.314Z,9.63
2023-05-13T01:38:20.689Z,9.57
2023-05-13T01:40:47.503Z,9.64
2023-05-13T01:43:14.235Z,9.67
2023-05-13T01:45:41.342Z,9.57
2023-05-13T01:48:08.376Z,9.38
2023-05-13T01:50:34.891Z,9.24
2023-05-13T01:53:01.408Z,9.08
2023-05-13T01:55:27.789Z,8.97
2023-05-13T01:57:54.718Z,8.94
2023-05-13T02:00:21.925Z,8.96
2023-05-13T02:02:48.781Z,8.98
2023-05-13T02:05:15.768Z,8.99
2023-05-13T02:07:42.179Z,9.00
2023-05-13T02:10:09.442Z,8.98
2023-05-13T02:12:36.579Z,8.97
2023-05-13T02:15:03.105Z,8.95
2023-05-13T02:17:29.734Z,8.93
2023-05-13T02:19:56.177Z,8.91
2023-05-13T02:22:22.709Z,8.93
2023-05-13T02:24:49.253Z,8.87
2023-05-13T02:27:16.469Z,8.90
2023-05-13T02:29:42.899Z,8.84
2023-05-13T02:32:09.825Z,8.77
2023-05-13T02:34:36.379Z,8.78
2023-05-13T02:37:04.576Z,8.75
2023-05-13T02:39:31.004Z,8.75
2023-05-13T02:41:57.883Z,8.77
2023-05-13T02:44:24.935Z,8.81
2023-05-13T02:46:51.414Z,8.75
2023-05-13T02:49:17.847Z,8.59
2023-05-13T02:51:44.321Z,8.51
2023-05-13T02:54:11.283Z,8.40
2023-05-13T02:56:37.855Z,8.41
2023-05-13T02:59:04.239Z,8.46
2023-05-13T03:01:31.507Z,8.45
2023-05-13T03:03:58.113Z,8.52
2023-05-13T03:06:24.710Z,8.55
2023-05-13T03:08:51.264Z,8.57
2023-05-13T03:11:18.201Z,8.62
2023-05-13T03:13:44.683Z,8.58
2023-05-13T03:16:11.117Z,8.57
2023-05-13T03:18:37.713Z,8.34
2023-05-13T03:21:04.644Z,8.29
2023-05-13T03:23:33.058Z,8.25
2023-05-13T03:25:59.484Z,8.26
2023-05-13T03:28:25.908Z,8.20
2023-05-13T03:30:52.396Z,8.20
2023-05-13T03:33:19.500Z,8.13
2023-05-13T03:35:48.342Z,8.12
2023-05-13T03:38:14.821Z,8.13
2023-05-13T03:40:41.724Z,8.12
2023-05-13T03:43:08.204Z,8.07
2023-05-13T03:45:35.214Z,7.94
2023-05-13T03:48:01.904Z,7.93
2023-05-13T03:50:28.324Z,7.93
2023-05-13T03:52:56.149Z,7.97
2023-05-13T03:55:22.529Z,7.96
2023-05-13T03:57:50.211Z,7.87
2023-05-13T04:00:17.253Z,7.90
2023-05-13T04:02:43.852Z,7.92
2023-05-13T04:05:10.900Z,7.91
2023-05-13T04:07:37.460Z,7.95
2023-05-13T04:10:04.184Z,7.96
2023-05-13T04:12:31.203Z,7.95
2023-05-13T04:14:57.636Z,7.83
2023-05-13T04:17:24.137Z,7.80
2023-05-13T04:19:53.747Z,7.81
2023-05-13T04:22:21.664Z,7.87
2023-05-13T04:24:51.729Z,7.89
2023-05-13T04:27:18.861Z,7.98
2023-05-13T04:29:45.347Z,8.07
2023-05-13T04:32:15.883Z,8.15
2023-05-13T04:34:42.786Z,8.15
2023-05-13T04:37:09.217Z,8.22
2023-05-13T04:39:35.792Z,8.31
2023-05-13T04:42:02.174Z,8.33
2023-05-13T04:44:28.585Z,8.44
2023-05-13T04:46:55.238Z,8.56
2023-05-13T04:49:21.641Z,8.63
2023-05-13T04:51:48.783Z,9.08
2023-05-13T04:54:15.840Z,9.61
2023-05-13T04:56:42.768Z,10.44
2023-05-13T04:59:10.186Z,11.09
2023-05-13T05:01:36.656Z,12.15
2023-05-13T05:04:03.524Z,13.84
2023-05-13T05:06:29.931Z,15.41
2023-05-13T05:08:59.116Z,16.81
2023-05-13T05:11:25.691Z,17.27
2023-05-13T05:13:52.097Z,17.34
2023-05-13T05:16:18.480Z,17.51
2023-05-13T05:18:45.625Z,18.01
2023-05-13T05:21:13.105Z,18.02
2023-05-13T05:23:39.489Z,17.18
2023-05-13T05:26:11.783Z,17.10
2023-05-13T05:28:40.136Z,17.60
2023-05-13T05:31:07.400Z,17.69
2023-05-13T05:33:33.942Z,18.11
2023-05-13T05:36:00.859Z,17.98
2023-05-13T05:38:27.500Z,16.38
2023-05-13T05:40:54.069Z,16.10
2023-05-13T05:43:20.849Z,16.45
2023-05-13T05:45:47.251Z,17.15
2023-05-13T05:48:13.911Z,17.66
2023-05-13T05:50:41.170Z,17.01
2023-05-13T05:53:07.655Z,16.72
2023-05-13T05:55:34.574Z,16.33
2023-05-13T05:58:05.318Z,16.02
2023-05-13T06:00:33.463Z,15.33
2023-05-13T06:03:00.147Z,14.44
2023-05-13T06:05:27.131Z,14.01
2023-05-13T06:07:53.612Z,13.90
2023-05-13T06:10:20.533Z,14.04
2023-05-13T06:12:47.160Z,14.06
2023-05-13T06:15:13.643Z,13.97
2023-05-13T06:17:40.135Z,13.95
2023-05-13T06:20:07.654Z,13.99
2023-05-13T06:22:34.715Z,13.82
2023-05-13T06:25:01.295Z,13.67
2023-05-13T06:27:28.003Z,13.54
2023-05-13T06:29:54.540Z,13.53
2023-05-13T06:32:20.976Z,13.61
2023-05-13T06:34:48.561Z,13.55
2023-05-13T06:37:15.612Z,13.30
2023-05-13T06:39:41.975Z,13.29
2023-05-13T06:42:10.089Z,13.22
2023-05-13T06:44:37.529Z,13.07
2023-05-13T06:47:05.786Z,13.04
2023-05-13T06:49:35.354Z,12.99
2023-05-13T06:52:01.792Z,13.00
2023-05-13T06:54:29.338Z,13.11
2023-05-13T06:56:56.426Z,13.31
2023-05-13T06:59:22.853Z,13.62
2023-05-13T07:01:49.695Z,13.78
2023-05-13T07:04:16.292Z,14.01
2023-05-13T07:06:42.873Z,14.22
2023-05-13T07:09:09.734Z,14.47
2023-05-13T07:11:37.330Z,14.74
2023-05-13T07:14:03.740Z,14.75
2023-05-13T07:16:30.652Z,14.68
2023-05-13T07:18:57.341Z,14.70
2023-05-13T07:21:23.787Z,14.61
2023-05-13T07:23:51.282Z,14.52
2023-05-13T07:26:17.785Z,14.35
2023-05-13T07:28:44.395Z,14.44
2023-05-13T07:31:11.380Z,14.52
2023-05-13T07:33:37.824Z,14.65
2023-05-13T07:36:05.931Z,14.85
2023-05-13T07:38:32.353Z,14.98
2023-05-13T07:40:58.812Z,15.27
2023-05-13T07:43:25.459Z,15.28
2023-05-13T07:45:52.266Z,15.33
2023-05-13T07:48:19.328Z,15.28
2023-05-13T07:50:46.505Z,15.41
2023-05-13T07:53:13.690Z,15.36
2023-05-13T07:55:40.084Z,15.47
2023-05-13T07:58:06.917Z,15.57
2023-05-13T08:00:33.464Z,15.55
2023-05-13T08:03:00.945Z,15.64
2023-05-13T08:05:27.477Z,15.87
2023-05-13T08:07:54.126Z,15.75
2023-05-13T08:10:21.088Z,15.90
2023-05-13T08:12:52.117Z,15.99
2023-05-13T08:15:19.119Z,16.01
2023-05-13T08:17:45.575Z,16.03
2023-05-13T08:20:12.628Z,16.09
2023-05-13T08:22:38.993Z,16.13
2023-05-13T08:25:06.171Z,16.35
2023-05-13T08:27:32.906Z,16.55
2023-05-13T08:29:59.318Z,16.61
2023-05-13T08:32:26.308Z,16.66
2023-05-13T08:34:53.408Z,16.49
2023-05-13T08:37:20.259Z,16.55
2023-05-13T08:39:46.637Z,16.44
2023-05-13T08:42:19.029Z,16.63
2023-05-13T08:44:47.284Z,16.70
2023-05-13T08:47:24.368Z,16.80
2023-05-13T08:49:52.171Z,16.94
2023-05-13T08:52:20.705Z,17.03
2023-05-13T08:54:49.552Z,17.17
2023-05-13T08:57:16.608Z,17.37
2023-05-13T08:59:43.679Z,17.41
2023-05-13T09:02:10.573Z,17.38
2023-05-13T09:04:39.082Z,17.11
2023-05-13T09:07:06.069Z,17.07
2023-05-13T09:09:32.853Z,17.22
2023-05-13T09:11:59.729Z,17.50
2023-05-13T09:14:32.881Z,17.83
2023-05-13T09:17:00.918Z,17.98
2023-05-13T09:19:27.758Z,18.06
2023-05-13T09:21:54.627Z,18.39
2023-05-13T09:24:22.058Z,18.52
2023-05-13T09:26:50.387Z,18.58
2023-05-13T09:29:21.401Z,18.72
2023-05-13T09:31:54.064Z,18.90
2023-05-13T09:34:31.293Z,18.96
2023-05-13T09:37:08.677Z,19.07
2023-05-13T09:39:40.305Z,19.14
2023-05-13T09:42:15.843Z,18.97
2023-05-13T09:44:43.948Z,19.04
2023-05-13T09:47:15.008Z,19.21
2023-05-13T09:49:42.465Z,19.23
2023-05-13T09:52:11.636Z,19.49
2023-05-13T09:54:38.717Z,19.43
2023-05-13T09:57:05.690Z,19.66
2023-05-13T09:59:35.526Z,19.55
2023-05-13T10:02:07.555Z,19.39
2023-05-13T10:04:34.028Z,19.33
2023-05-13T10:07:03.438Z,19.32
2023-05-13T10:09:35.969Z,19.48
2023-05-13T10:12:03.567Z,19.68
2023-05-13T10:14:31.215Z,19.92
2023-05-13T10:16:59.204Z,20.27
2023-05-13T10:19:26.464Z,20.51
2023-05-13T10:21:54.125Z,20.57
2023-05-13T10:24:22.322Z,20.62
2023-05-13T10:26:52.648Z,20.40
2023-05-13T10:29:19.385Z,20.35
2023-05-13T10:31:47.795Z,20.15
2023-05-13T10:34:14.841Z,19.97
2023-05-13T10:37:06.978Z,19.73
2023-05-13T10:39:51.737Z,19.42
2023-05-13T10:42:42.625Z,19.30
2023-05-13T10:45:10.304Z,19.10
2023-05-13T10:47:38.127Z,18.98
2023-05-13T10:50:06.444Z,18.92
2023-05-13T10:52:46.510Z,18.80
2023-05-13T10:55:20.886Z,18.73
2023-05-13T10:58:11.331Z,18.60
2023-05-13T11:00:39.719Z,18.04
2023-05-13T11:03:18.496Z,17.61
2023-05-13T11:06:00.307Z,17.11
2023-05-13T11:09:11.720Z,16.70
2023-05-13T11:11:38.871Z,16.37
2023-05-13T11:14:21.119Z,15.76
2023-05-13T11:16:54.225Z,15.40
2023-05-13T11:19:27.740Z,15.02
2023-05-13T11:22:15.464Z,14.78
2023-05-13T11:24:45.491Z,14.77
2023-05-13T11:27:20.930Z,14.80
2023-05-13T11:29:55.492Z,14.94
2023-05-13T11:32:54.317Z,15.09
2023-05-13T11:35:31.744Z,15.33
2023-05-13T11:38:00.575Z,15.97
2023-05-13T11:40:29.284Z,16.75
2023-05-13T11:42:57.177Z,17.54
2023-05-13T11:45:25.471Z,17.88
2023-05-13T11:47:53.754Z,17.76
2023-05-13T11:50:21.660Z,17.50
2023-05-13T11:52:52.826Z,17.59
2023-05-13T11:55:46.264Z,17.55
2023-05-13T11:58:15.575Z,17.93
2023-05-13T12:00:42.377Z,18.48
2023-05-13T12:03:12.333Z,19.08
2023-05-13T12:05:39.720Z,19.11
2023-05-13T12:08:11.066Z,18.81
2023-05-13T12:10:43.530Z,18.58
2023-05-13T12:13:10.361Z,18.23
2023-05-13T12:15:37.155Z,17.87
2023-05-13T12:18:03.999Z,17.60
2023-05-13T12:20:30.941Z,17.50
2023-05-13T12:23:00.119Z,17.40
2023-05-13T12:25:42.480Z,17.42
2023-05-13T12:28:23.706Z,17.84
2023-05-13T12:30:56.265Z,18.43
2023-05-13T12:33:25.369Z,18.80
2023-05-13T12:35:53.933Z,18.70
2023-05-13T12:38:24.528Z,18.53
2023-05-13T12:40:52.303Z,18.13
2023-05-13T12:43:19.569Z,18.01
2023-05-13T12:45:51.718Z,17.59
2023-05-13T12:48:23.246Z,17.44
2023-05-13T12:50:51.799Z,17.53
2023-05-13T12:53:18.340Z,17.51
2023-05-13T12:55:45.192Z,17.66
2023-05-13T12:58:13.088Z,17.55
2023-05-13T13:00:39.621Z,17.62
2023-05-13T13:03:06.734Z,18.25
2023-05-13T13:05:33.533Z,18.85
2023-05-13T13:08:01.712Z,18.94
2023-05-13T13:10:28.680Z,18.55
2023-05-13T13:12:55.195Z,18.81
2023-05-13T13:15:21.724Z,19.24
2023-05-13T13:17:48.700Z,19.72
2023-05-13T13:20:15.150Z,19.76
2023-05-13T13:22:41.818Z,19.70
2023-05-13T13:25:08.678Z,20.06
2023-05-13T13:27:35.269Z,20.40
2023-05-13T13:30:02.799Z,20.53
2023-05-13T13:32:29.601Z,19.94
2023-05-13T13:34:58.318Z,19.28
2023-05-13T13:37:24.790Z,19.17
2023-05-13T13:39:51.612Z,18.51
2023-05-13T13:42:18.099Z,18.41
2023-05-13T13:44:44.650Z,17.96
2023-05-13T13:47:11.084Z,18.23
2023-05-13T13:49:37.481Z,18.24
2023-05-13T13:52:04.139Z,18.60
2023-05-13T13:54:30.883Z,19.16
2023-05-13T13:56:57.931Z,19.65
2023-05-13T13:59:24.380Z,20.14
2023-05-13T14:01:51.342Z,20.21
2023-05-13T14:04:27.749Z,19.57
2023-05-13T14:06:57.924Z,19.36
2023-05-13T14:09:25.160Z,19.48
2023-05-13T14:11:52.710Z,19.61
2023-05-13T14:14:19.567Z,19.59
2023-05-13T14:16:46.054Z,19.54
2023-05-13T14:19:12.756Z,19.43
2023-05-13T14:21:39.274Z,19.45
2023-05-13T14:24:06.248Z,19.59
2023-05-13T14:26:33.031Z,19.59
2023-05-13T14:28:59.564Z,19.45
2023-05-13T14:31:26.421Z,18.92
2023-05-13T14:33:52.802Z,19.25
2023-05-13T14:36:20.665Z,19.17
2023-05-13T14:38:47.228Z,19.43
2023-05-13T14:41:20.155Z,19.51
2023-05-13T14:43:47.372Z,19.43
2023-05-13T14:46:14.434Z,19.37
2023-05-13T14:48:41.384Z,19.49
2023-05-13T14:51:08.264Z,19.93
2023-05-13T14:53:35.187Z,19.95
2023-05-13T14:56:01.647Z,19.65
2023-05-13T14:58:28.235Z,19.56
2023-05-13T15:00:55.083Z,19.18
2023-05-13T15:03:21.884Z,18.86
2023-05-13T15:05:48.547Z,18.69
2023-05-13T15:08:15.270Z,18.55
2023-05-13T15:10:41.785Z,18.52
2023-05-13T15:13:08.234Z,18.25
2023-05-13T15:15:35.117Z,18.11
2023-05-13T15:18:01.588Z,17.98
2023-05-13T15:20:28.569Z,17.83
2023-05-13T15:22:56.830Z,17.78
2023-05-13T15:25:24.051Z,17.71
2023-05-13T15:27:51.597Z,17.60
2023-05-13T15:30:18.036Z,17.40
2023-05-13T15:32:44.478Z,17.40
2023-05-13T15:35:11.064Z,17.36
2023-05-13T15:37:37.826Z,17.16
2023-05-13T15:40:04.674Z,17.06
2023-05-13T15:42:31.441Z,17.14
2023-05-13T15:44:57.833Z,17.14
2023-05-13T15:47:24.415Z,17.34
2023-05-13T15:49:53.370Z,17.42
2023-05-13T15:52:20.239Z,17.37
2023-05-13T15:54:46.719Z,17.31
2023-05-13T15:57:13.635Z,17.19
2023-05-13T15:59:40.131Z,17.03
2023-05-13T16:02:07.377Z,17.01
2023-05-13T16:04:33.933Z,17.40
2023-05-13T16:07:00.557Z,17.82
2023-05-13T16:09:27.357Z,17.98
2023-05-13T16:11:55.093Z,18.16
2023-05-13T16:14:21.512Z,18.46
2023-05-13T16:16:48.366Z,18.73
2023-05-13T16:19:14.982Z,18.69
2023-05-13T16:21:42.250Z,18.89
2023-05-13T16:24:08.921Z,18.90
2023-05-13T16:26:35.707Z,19.02
2023-05-13T16:29:02.093Z,19.07
2023-05-13T16:31:29.759Z,19.16
2023-05-13T16:33:57.382Z,19.25
2023-05-13T16:36:24.341Z,19.25
2023-05-13T16:38:51.051Z,19.30
2023-05-13T16:41:17.503Z,19.40
2023-05-13T16:43:44.434Z,19.35
2023-05-13T16:46:10.813Z,19.42
2023-05-13T16:48:37.396Z,19.49
2023-05-13T16:51:04.773Z,19.51
2023-05-13T16:53:31.313Z,19.64
2023-05-13T16:55:57.979Z,19.60
2023-05-13T16:58:24.375Z,19.43
2023-05-13T17:00:51.227Z,19.29
2023-05-13T17:03:18.156Z,19.19
2023-05-13T17:05:44.898Z,19.10
2023-05-13T17:08:11.453Z,19.07
2023-05-13T17:10:37.844Z,19.07
2023-05-13T17:13:04.650Z,18.76
2023-05-13T17:15:31.176Z,18.54
2023-05-13T17:17:57.744Z,18.64
2023-05-13T17:20:24.332Z,18.82
2023-05-13T17:22:51.717Z,19.02
2023-05-13T17:25:18.196Z,18.90
2023-05-13T17:27:44.996Z,18.86
2023-05-13T17:30:12.257Z,18.86
2023-05-13T17:32:38.826Z,18.93
2023-05-13T17:35:06.071Z,18.88
2023-05-13T17:37:32.490Z,18.79
2023-05-13T17:40:02.449Z,18.70
2023-05-13T17:42:30.232Z,18.71
2023-05-13T17:44:58.009Z,18.61
2023-05-13T17:47:24.563Z,18.57
2023-05-13T17:49:51.160Z,18.36
2023-05-13T17:52:17.583Z,18.35
2023-05-13T17:54:44.365Z,18.17
2023-05-13T17:57:11.127Z,18.20
2023-05-13T17:59:38.868Z,18.14
2023-05-13T18:02:05.279Z,18.09
2023-05-13T18:04:32.260Z,17.98
2023-05-13T18:06:58.729Z,17.83
2023-05-13T18:09:25.682Z,17.76
2023-05-13T18:11:52.119Z,17.57
2023-05-13T18:14:18.777Z,17.51
2023-05-13T18:16:45.292Z,17.39
2023-05-13T18:19:11.989Z,17.29
2023-05-13T18:21:38.885Z,17.07
2023-05-13T18:24:05.908Z,16.96
2023-05-13T18:26:32.801Z,16.66
2023-05-13T18:28:59.913Z,16.54
2023-05-13T18:31:26.477Z,16.34
2023-05-13T18:33:53.227Z,16.10
2023-05-13T18:36:20.030Z,16.00
2023-05-13T18:38:47.898Z,15.97
2023-05-13T18:41:14.677Z,15.78
2023-05-13T18:43:41.362Z,15.68
2023-05-13T18:46:08.706Z,15.40
2023-05-13T18:48:36.245Z,15.24
2023-05-13T18:51:02.809Z,15.15
2023-05-13T18:53:29.179Z,14.89
2023-05-13T18:55:56.160Z,14.70
2023-05-13T18:58:23.059Z,14.47
2023-05-13T19:00:49.536Z,14.23
2023-05-13T19:03:20.113Z,14.12
2023-05-13T19:05:46.615Z,13.98
2023-05-13T19:08:13.475Z,13.86
2023-05-13T19:10:40.765Z,13.84
2023-05-13T19:13:09.012Z,13.75
2023-05-13T19:15:35.530Z,13.64
2023-05-13T19:18:02.329Z,13.56
2023-05-13T19:20:29.540Z,13.40
2023-05-13T19:22:56.078Z,13.25
2023-05-13T19:25:23.138Z,13.16
2023-05-13T19:27:50.161Z,13.00
2023-05-13T19:30:16.676Z,12.91
2023-05-13T19:32:43.704Z,12.87
2023-05-13T19:35:11.327Z,12.70
2023-05-13T19:37:37.956Z,12.65
2023-05-13T19:40:05.074Z,12.47
2023-05-13T19:42:32.638Z,12.47
2023-05-13T19:44:59.045Z,12.36
2023-05-13T19:47:27.139Z,12.30
2023-05-13T19:49:53.820Z,12.16
2023-05-13T19:52:20.781Z,12.09
2023-05-13T19:54:47.195Z,12.07
2023-05-13T19:57:13.952Z,12.00
2023-05-13T19:59:41.620Z,11.91
2023-05-13T20:02:09.354Z,11.98
2023-05-13T20:04:35.874Z,11.90
2023-05-13T20:07:03.105Z,11.85
2023-05-13T20:09:30.036Z,11.84
2023-05-13T20:11:58.459Z,11.78
2023-05-13T20:14:27.477Z,11.76
2023-05-13T20:16:54.969Z,11.63
2023-05-13T20:19:21.633Z,11.61
2023-05-13T20:21:48.344Z,11.56
2023-05-13T20:24:14.748Z,11.37
2023-05-13T20:26:41.352Z,11.25
2023-05-13T20:29:08.374Z,11.08
2023-05-13T20:31:34.798Z,10.99
2023-05-13T20:34:03.482Z,10.97
2023-05-13T20:36:29.959Z,10.97
2023-05-13T20:38:56.912Z,10.80
2023-05-13T20:41:24.033Z,10.70
2023-05-13T20:43:50.471Z,10.59
2023-05-13T20:46:17.798Z,10.60
2023-05-13T20:48:44.386Z,10.68
2023-05-13T20:51:11.409Z,10.66
2023-05-13T20:53:37.875Z,10.60
2023-05-13T20:56:04.837Z,10.67
2023-05-13T20:58:31.324Z,10.61
2023-05-13T21:00:58.093Z,10.56
2023-05-13T21:03:25.935Z,10.47
2023-05-13T21:05:52.441Z,10.33
2023-05-13T21:08:19.224Z,10.17
2023-05-13T21:10:45.696Z,10.10
2023-05-13T21:13:13.028Z,10.03
2023-05-13T21:15:39.514Z,9.88
2023-05-13T21:18:06.603Z,9.92
2023-05-13T21:20:33.828Z,9.90
2023-05-13T21:23:01.198Z,9.71
2023-05-13T21:25:28.117Z,9.68
2023-05-13T21:27:54.890Z,9.70
2023-05-13T21:30:21.941Z,9.67
2023-05-13T21:32:48.529Z,9.58
2023-05-13T21:35:15.936Z,9.57
2023-05-13T21:37:42.368Z,9.56
2023-05-13T21:40:09.361Z,9.64
2023-05-13T21:42:35.806Z,9.64
2023-05-13T21:45:03.087Z,9.59
2023-05-13T21:47:29.958Z,9.54
2023-05-13T21:49:56.497Z,9.57
2023-05-13T21:52:23.021Z,9.37
2023-05-13T21:54:49.918Z,9.22
2023-05-13T21:57:16.868Z,9.24
2023-05-13T21:59:43.773Z,9.25
2023-05-13T22:02:10.740Z,9.23
2023-05-13T22:04:37.253Z,9.04
2023-05-13T22:07:05.355Z,9.00
2023-05-13T22:09:31.771Z,9.04
2023-05-13T22:11:58.807Z,9.04
2023-05-13T22:14:25.359Z,9.01
2023-05-13T22:17:04.827Z,8.98
2023-05-13T22:19:35.367Z,8.96
2023-05-13T22:22:02.272Z,9.02
2023-05-13T22:24:29.020Z,8.94
2023-05-13T22:26:55.447Z,8.89
2023-05-13T22:29:21.874Z,8.82
2023-05-13T22:31:48.864Z,8.82
2023-05-13T22:34:15.367Z,8.89
2023-05-13T22:36:43.903Z,8.82
2023-05-13T22:39:12.078Z,8.79
2023-05-13T22:41:39.239Z,8.75
2023-05-13T22:44:05.737Z,8.69
2023-05-13T22:46:32.538Z,8.67
2023-05-13T22:48:58.989Z,8.59
2023-05-13T22:51:26.037Z,8.59
2023-05-13T22:53:52.459Z,8.60
2023-05-13T22:56:19.605Z,8.61
2023-05-13T22:58:46.374Z,8.62
2023-05-13T23:01:12.927Z,8.66
2023-05-13T23:03:39.852Z,8.69
2023-05-13T23:06:06.473Z,8.68
2023-05-13T23:08:33.088Z,8.50
2023-05-13T23:10:59.512Z,8.38
2023-05-13T23:13:26.169Z,8.36
2023-05-13T23:15:52.575Z,8.36
2023-05-13T23:18:19.168Z,8.36
2023-05-13T23:20:50.974Z,8.36
2023-05-13T23:23:19.156Z,8.37
2023-05-13T23:25:46.819Z,8.40
2023-05-13T23:28:14.062Z,8.39
2023-05-13T23:30:41.562Z,8.33
2023-05-13T23:33:08.555Z,8.34
2023-05-13T23:35:36.404Z,8.31
2023-05-13T23:38:02.800Z,8.29
2023-05-13T23:40:29.723Z,8.22
2023-05-13T23:42:56.523Z,8.16
2023-05-13T23:45:22.925Z,8.14
2023-05-13T23:47:52.002Z,8.15
2023-05-13T23:50:18.525Z,8.17
2023-05-13T23:52:45.104Z,8.17
2023-05-13T23:55:11.960Z,8.17
2023-05-13T23:57:38.855Z,8.14
